createdAt,value
2019-03-13T00:01:23.851Z,5.84
2019-03-13T00:21:34.150Z,4.64
2019-03-13T00:41:34.986Z,5.24
2019-03-13T01:01:47.216Z,6.18
2019-03-13T01:21:46.648Z,5.11
2019-03-13T01:41:56.105Z,5.12
2019-03-13T02:02:05.524Z,6.23
2019-03-13T02:22:14.886Z,6.69
2019-03-13T02:42:24.253Z,7.81
2019-03-13T03:02:36.838Z,6.66
2019-03-13T03:22:36.111Z,6.16
2019-03-13T03:42:45.448Z,11.23
2019-03-13T04:02:54.798Z,9.02
2019-03-13T04:23:04.234Z,8.69
2019-03-13T04:43:13.551Z,11.14
2019-03-13T05:03:25.651Z,17.27
2019-03-13T05:23:25.001Z,16.31
2019-03-13T05:43:34.361Z,12.86
2019-03-13T06:03:43.762Z,13.24
2019-03-13T06:23:53.170Z,17.45
2019-03-13T06:44:02.671Z,17.16
2019-03-13T07:04:12.005Z,16.61
2019-03-13T07:24:21.360Z,19.44
2019-03-13T07:44:30.736Z,21.89
2019-03-13T08:04:42.384Z,24.23
2019-03-13T08:24:41.764Z,27.99
2019-03-13T08:44:52.661Z,26.82
2019-03-13T09:04:52.071Z,24.17
2019-03-13T09:25:11.146Z,19.49
2019-03-13T09:45:10.575Z,20.44
2019-03-13T10:05:19.981Z,17.13
2019-03-13T10:25:29.427Z,17.08
2019-03-13T10:45:38.756Z,21.71
2019-03-13T11:05:48.207Z,11.91
2019-03-13T11:25:57.570Z,13.01
2019-03-13T11:46:06.968Z,14.59
2019-03-13T12:06:18.580Z,11.95
2019-03-13T12:26:18.096Z,11.24
2019-03-13T12:46:27.549Z,9.24
2019-03-13T13:06:36.962Z,10.42
2019-03-13T13:26:46.332Z,10.84
2019-03-13T13:46:55.792Z,10.53
2019-03-13T14:07:05.271Z,12.08
2019-03-13T14:27:15.185Z,16.28
2019-03-13T14:47:23.731Z,24.15
2019-03-13T15:07:33.118Z,16.07
2019-03-13T15:27:42.590Z,16.30
2019-03-13T15:47:52.083Z,10.78
2019-03-13T16:08:01.462Z,10.70
2019-03-13T16:28:13.116Z,13.44
2019-03-13T16:48:12.466Z,14.93
2019-03-13T17:08:27.272Z,14.70
2019-03-13T17:28:26.565Z,17.22
2019-03-13T17:48:36.010Z,17.03
2019-03-13T18:08:45.445Z,24.28
2019-03-13T18:28:55.004Z,26.71
2019-03-13T18:49:04.589Z,28.94
2019-03-13T19:09:14.237Z,17.16
2019-03-13T19:29:23.734Z,18.22
2019-03-13T19:49:33.183Z,17.33
2019-03-13T20:09:42.528Z,17.54
2019-03-13T20:29:51.948Z,16.24
2019-03-13T20:50:01.538Z,18.84
2019-03-13T21:10:11.039Z,24.38
2019-03-13T21:30:20.470Z,26.24
2019-03-13T21:50:29.828Z,39.20
2019-03-13T22:10:39.202Z,45.69
2019-03-13T22:30:48.562Z,26.25
2019-03-13T22:50:57.984Z,33.07
2019-03-13T23:11:07.463Z,44.14
2019-03-13T23:31:17.696Z,25.83
2019-03-13T23:51:17.151Z,21.33
